Time;durP1;ratioP1;P1;durP2;ratioP2;P2;SDS_P1;SDS_P2;PMS_P1;PMS_P2;Temp;Humidity;BMP_temperature;BMP_pressure;BME280_temperature;BME280_humidity;BME280_pressure;Samples;Min_cycle;Max_cycle;Signal;HPM_P1;HPM_P2
2023/03/23 00:00:05;;;;;;;1.40;0.50;;;15.20;96.60;;;;;;5075340;28;20154;-84
2023/03/23 00:02:37;;;;;;;2.05;0.50;;;15.20;96.70;;;;;;5075382;28;20032;-83
2023/03/23 00:05:07;;;;;;;2.85;0.43;;;15.20;96.50;;;;;;5075985;28;20024;-83
2023/03/23 00:07:33;;;;;;;0.60;0.40;;;15.20;96.60;;;;;;5076332;28;20012;-83
2023/03/23 00:10:02;;;;;;;1.05;0.50;;;15.20;96.70;;;;;;5074868;28;20024;-84
2023/03/23 00:12:32;;;;;;;2.90;0.85;;;15.20;96.70;;;;;;5074997;28;20024;-84
2023/03/23 00:15:03;;;;;;;2.70;0.50;;;15.20;96.70;;;;;;5075051;28;20020;-85
2023/03/23 00:17:29;;;;;;;0.95;0.35;;;15.20;96.70;;;;;;5089493;28;20456;-85
2023/03/23 00:20:00;;;;;;;1.48;0.50;;;15.20;96.60;;;;;;5076897;28;20025;-85
2023/03/23 00:22:28;;;;;;;1.63;0.47;;;15.20;96.50;;;;;;5075779;28;20030;-86
2023/03/23 00:24:54;;;;;;;2.58;0.63;;;15.20;96.30;;;;;;5074542;28;20340;-86
2023/03/23 00:27:24;;;;;;;1.20;0.63;;;15.20;96.20;;;;;;5087288;28;20032;-84
2023/03/23 00:29:53;;;;;;;0.85;0.60;;;15.20;96.10;;;;;;5076666;28;20461;-83
2023/03/23 00:32:20;;;;;;;1.45;0.60;;;15.20;96.30;;;;;;5094441;28;20051;-86
2023/03/23 00:34:48;;;;;;;1.15;0.52;;;15.20;96.10;;;;;;5094912;28;20433;-86
2023/03/23 00:37:16;;;;;;;0.70;0.60;;;15.20;96.10;;;;;;5094409;28;20115;-86
2023/03/23 00:39:44;;;;;;;1.17;0.63;;;15.20;95.90;;;;;;5096041;28;20020;-86
2023/03/23 00:42:10;;;;;;;1.90;0.60;;;15.20;96.10;;;;;;5053970;28;20024;-85
2023/03/23 00:44:36;;;;;;;1.00;0.60;;;15.20;95.80;;;;;;5055160;28;20122;-83
2023/03/23 00:47:02;;;;;;;1.27;0.60;;;15.20;95.80;;;;;;5053948;28;20025;-88
2023/03/23 00:49:28;;;;;;;3.25;0.65;;;15.20;95.50;;;;;;5068625;28;20017;-85
2023/03/23 00:51:56;;;;;;;3.08;0.75;;;15.30;95.40;;;;;;5076342;28;20024;-85
2023/03/23 00:54:23;;;;;;;0.98;0.50;;;15.30;95.10;;;;;;5079765;28;20575;-85
2023/03/23 00:56:48;;;;;;;0.90;0.60;;;15.30;95.10;;;;;;5082849;28;20028;-85
2023/03/23 00:59:14;;;;;;;2.30;0.68;;;15.30;95.00;;;;;;5093439;28;20028;-86
2023/03/23 01:01:40;;;;;;;3.45;0.70;;;15.40;95.00;;;;;;5094039;28;20032;-85
2023/03/23 01:04:06;;;;;;;0.90;0.55;;;15.40;94.80;;;;;;5094037;28;20031;-87
2023/03/23 01:06:38;;;;;;;1.92;0.88;;;15.40;94.90;;;;;;5094012;28;20484;-83
2023/03/23 01:09:09;;;;;;;3.17;2.20;;;15.50;94.90;;;;;;5093302;28;20070;-82
2023/03/23 01:11:35;;;;;;;2.28;0.52;;;15.50;95.00;;;;;;5093970;28;20047;-84
2023/03/23 01:14:01;;;;;;;2.13;0.60;;;15.50;94.90;;;;;;5093852;28;20032;-83
2023/03/23 01:16:27;;;;;;;1.13;0.63;;;15.40;95.10;;;;;;5087294;28;20051;-83
2023/03/23 01:18:53;;;;;;;1.88;0.65;;;15.50;95.20;;;;;;5083077;28;20016;-83
2023/03/23 01:21:20;;;;;;;1.00;0.57;;;15.50;95.30;;;;;;5079431;28;20024;-82
2023/03/23 01:23:46;;;;;;;2.53;0.70;;;15.50;95.40;;;;;;5083299;28;20024;-84
2023/03/23 01:26:18;;;;;;;1.08;0.60;;;15.50;95.20;;;;;;5088841;28;20048;-84
2023/03/23 01:28:44;;;;;;;1.83;0.75;;;15.50;95.30;;;;;;5074135;28;20318;-81
2023/03/23 01:31:13;;;;;;;0.93;0.60;;;15.50;95.40;;;;;;5085822;28;20582;-80
2023/03/23 01:33:39;;;;;;;0.63;0.50;;;15.50;95.50;;;;;;5093673;28;20052;-81
2023/03/23 01:36:09;;;;;;;0.90;0.60;;;15.50;95.50;;;;;;5092978;28;20028;-81
2023/03/23 01:38:35;;;;;;;1.90;0.73;;;15.50;95.30;;;;;;5088518;28;20109;-82
2023/03/23 01:41:01;;;;;;;0.70;0.70;;;15.50;95.30;;;;;;5076528;28;20032;-85
2023/03/23 01:43:27;;;;;;;0.75;0.50;;;15.50;95.10;;;;;;5078333;28;20027;-81
2023/03/23 01:45:53;;;;;;;0.65;0.43;;;15.50;95.10;;;;;;5073407;28;20029;-81
2023/03/23 01:48:27;;;;;;;1.95;0.90;;;15.60;95.20;;;;;;5072780;28;20051;-81
2023/03/23 01:51:15;;;;;;;1.23;0.60;;;15.60;94.90;;;;;;5073035;28;20488;-81
2023/03/23 01:53:46;;;;;;;2.08;0.75;;;15.60;94.70;;;;;;5074362;28;20453;-81
2023/03/23 01:56:14;;;;;;;1.70;0.63;;;15.60;94.60;;;;;;5072826;28;20033;-81
2023/03/23 01:58:41;;;;;;;0.95;0.68;;;15.70;94.20;;;;;;5072875;28;20043;-81
2023/03/23 02:01:11;;;;;;;1.40;0.75;;;15.70;94.00;;;;;;5073009;28;20035;-82
2023/03/23 02:03:39;;;;;;;2.10;0.73;;;15.70;94.00;;;;;;5074313;28;20046;-81
2023/03/23 02:06:05;;;;;;;0.82;0.50;;;15.70;93.80;;;;;;5073072;28;20029;-82
2023/03/23 02:08:33;;;;;;;1.83;0.52;;;15.80;93.70;;;;;;5072960;28;20454;-81
2023/03/23 02:10:59;;;;;;;1.40;0.70;;;15.80;93.70;;;;;;5074302;28;20020;-81
2023/03/23 02:13:26;;;;;;;1.23;0.70;;;15.80;93.60;;;;;;5072642;28;20504;-81
2023/03/23 02:16:09;;;;;;;1.40;0.80;;;15.80;93.60;;;;;;5074176;28;20025;-81
2023/03/23 02:18:34;;;;;;;2.45;0.80;;;15.80;93.40;;;;;;5073366;28;20082;-81
2023/03/23 02:21:08;;;;;;;1.10;0.65;;;15.80;93.30;;;;;;5073227;28;20446;-80
2023/03/23 02:23:50;;;;;;;1.23;0.82;;;15.80;93.30;;;;;;5073415;28;20031;-81
2023/03/23 02:27:02;;;;;;;1.50;0.63;;;15.80;93.30;;;;;;5073528;28;20021;-82
2023/03/23 02:29:57;;;;;;;1.65;0.60;;;15.80;93.10;;;;;;5049519;28;20033;-82
2023/03/23 02:32:42;;;;;;;1.92;0.80;;;15.90;93.00;;;;;;5072489;28;20036;-82
2023/03/23 02:35:22;;;;;;;1.33;0.60;;;15.90;93.00;;;;;;5072124;28;20033;-80
2023/03/23 02:37:48;;;;;;;1.48;0.60;;;15.90;92.90;;;;;;5080821;28;20477;-80
2023/03/23 02:40:30;;;;;;;1.65;0.70;;;15.90;93.00;;;;;;5093532;28;20024;-80
2023/03/23 02:42:58;;;;;;;1.10;0.80;;;15.90;92.90;;;;;;5052728;28;20214;-80
2023/03/23 02:45:28;;;;;;;1.88;0.80;;;15.90;92.90;;;;;;5053268;28;20029;-81
2023/03/23 02:47:55;;;;;;;0.90;0.52;;;16.00;92.80;;;;;;5053604;28;20041;-81
2023/03/23 02:50:25;;;;;;;1.50;1.02;;;16.00;92.80;;;;;;5052024;28;20021;-81
2023/03/23 02:52:53;;;;;;;0.93;0.60;;;16.00;92.80;;;;;;5055802;28;20107;-80
2023/03/23 02:55:22;;;;;;;2.05;0.82;;;16.00;92.80;;;;;;5055796;28;20450;-81
2023/03/23 02:57:49;;;;;;;1.20;0.70;;;16.00;92.90;;;;;;5056114;28;20053;-81
2023/03/23 03:00:18;;;;;;;2.42;0.50;;;16.00;92.90;;;;;;5056694;28;20118;-81
2023/03/23 03:02:52;;;;;;;1.13;0.50;;;16.10;92.90;;;;;;5056253;28;20017;-81
2023/03/23 03:05:36;;;;;;;1.27;0.57;;;16.00;93.10;;;;;;5055697;28;20032;-81
2023/03/23 03:08:19;;;;;;;1.67;0.70;;;16.00;93.10;;;;;;5057167;28;20454;-79
2023/03/23 03:10:58;;;;;;;1.83;0.80;;;16.10;93.30;;;;;;5055982;28;20021;-78
2023/03/23 03:13:50;;;;;;;2.67;0.80;;;16.00;93.20;;;;;;5056508;28;20013;-80
2023/03/23 03:16:24;;;;;;;;;;;16.10;93.30;;;;;;5057057;28;20028;-80
2023/03/23 03:19:11;;;;;;;1.33;0.70;;;16.10;93.20;;;;;;5055855;28;20348;-79
2023/03/23 03:21:41;;;;;;;1.85;0.77;;;16.10;93.40;;;;;;5088865;28;20021;-79
2023/03/23 03:24:11;;;;;;;0.95;0.63;;;16.00;93.40;;;;;;5055535;28;20029;-84
2023/03/23 03:26:40;;;;;;;2.47;0.75;;;16.10;93.50;;;;;;5068352;28;20038;-79
2023/03/23 03:29:07;;;;;;;1.55;0.70;;;16.10;93.50;;;;;;5075877;28;20405;-81
2023/03/23 03:31:38;;;;;;;2.42;0.95;;;16.10;93.50;;;;;;5081468;28;20073;-79
2023/03/23 03:34:04;;;;;;;1.33;0.88;;;16.10;93.70;;;;;;5075404;28;20024;-81
2023/03/23 03:36:37;;;;;;;1.80;0.93;;;16.10;93.80;;;;;;5089708;28;20331;-80
2023/03/23 03:39:08;;;;;;;1.40;0.70;;;16.00;93.90;;;;;;5095769;28;20389;-80
2023/03/23 03:41:37;;;;;;;1.25;0.90;;;16.00;94.10;;;;;;5082352;28;20029;-80
2023/03/23 03:44:05;;;;;;;2.20;0.73;;;16.00;94.30;;;;;;5076094;28;20099;-81
2023/03/23 03:46:31;;;;;;;3.08;0.80;;;16.00;94.30;;;;;;5074815;28;20454;-81
2023/03/23 03:48:57;;;;;;;1.48;0.90;;;15.90;94.60;;;;;;5075201;28;20067;-80
2023/03/23 03:51:24;;;;;;;1.75;0.80;;;16.00;94.50;;;;;;5087709;28;20028;-79
2023/03/23 03:53:50;;;;;;;1.45;0.70;;;16.00;94.60;;;;;;5079919;28;20020;-80
2023/03/23 03:56:16;;;;;;;1.25;0.70;;;15.90;94.70;;;;;;5090648;28;20035;-79
2023/03/23 03:58:42;;;;;;;1.23;0.68;;;16.00;94.80;;;;;;5075780;28;20030;-81
2023/03/23 04:01:09;;;;;;;1.73;0.73;;;15.90;94.80;;;;;;5083846;28;20024;-83
2023/03/23 04:03:36;;;;;;;1.13;0.90;;;15.90;94.90;;;;;;5094248;28;20081;-81
2023/03/23 04:06:03;;;;;;;2.05;0.70;;;15.90;95.30;;;;;;5095174;28;20027;-81
2023/03/23 04:08:29;;;;;;;0.90;0.60;;;15.90;95.10;;;;;;5095255;28;20214;-80
2023/03/23 04:10:55;;;;;;;1.27;0.70;;;15.90;95.30;;;;;;5087280;28;20017;-80
2023/03/23 04:13:21;;;;;;;1.27;0.90;;;15.80;95.40;;;;;;5074617;28;20124;-81
2023/03/23 04:15:47;;;;;;;1.90;0.60;;;15.80;95.40;;;;;;5075072;28;20058;-80
2023/03/23 04:18:14;;;;;;;1.98;1.08;;;15.90;95.50;;;;;;5074290;28;20398;-81
2023/03/23 04:20:42;;;;;;;1.80;1.20;;;15.80;95.50;;;;;;5075076;28;20453;-80
2023/03/23 04:23:08;;;;;;;4.20;1.35;;;15.80;95.50;;;;;;5074761;28;20059;-81
2023/03/23 04:25:33;;;;;;;2.80;1.13;;;15.80;95.60;;;;;;5079864;28;20047;-80
2023/03/23 04:28:01;;;;;;;2.53;1.10;;;15.90;95.70;;;;;;5091147;28;20031;-81
2023/03/23 04:30:27;;;;;;;1.33;0.95;;;15.80;95.80;;;;;;5054373;28;20436;-81
2023/03/23 04:32:56;;;;;;;2.30;0.90;;;15.80;95.90;;;;;;5055630;28;20017;-80
2023/03/23 04:35:28;;;;;;;2.42;1.10;;;15.80;96.10;;;;;;5053739;28;20036;-81
2023/03/23 04:37:54;;;;;;;1.70;0.98;;;15.80;96.30;;;;;;5085913;28;20051;-82
2023/03/23 04:40:22;;;;;;;1.75;0.90;;;15.80;96.50;;;;;;5093444;28;20020;-81
2023/03/23 04:42:50;;;;;;;2.38;0.80;;;15.70;96.50;;;;;;5074271;28;20028;-82
2023/03/23 04:45:21;;;;;;;2.55;0.95;;;15.70;96.60;;;;;;5074055;28;20099;-82
2023/03/23 04:47:53;;;;;;;2.78;0.80;;;15.70;96.70;;;;;;5080325;28;20023;-82
2023/03/23 04:50:23;;;;;;;2.00;0.77;;;15.70;96.90;;;;;;5074786;28;20021;-82
2023/03/23 04:52:51;;;;;;;1.98;0.90;;;15.70;97.00;;;;;;5074285;28;20086;-81
2023/03/23 04:55:17;;;;;;;1.40;1.02;;;15.70;97.20;;;;;;5079778;28;20477;-82
2023/03/23 04:57:43;;;;;;;1.42;0.90;;;15.60;97.30;;;;;;5095258;28;20024;-82
2023/03/23 05:00:17;;;;;;;1.05;0.60;;;15.60;97.40;;;;;;5093933;28;20031;-84
2023/03/23 05:02:46;;;;;;;1.30;0.90;;;15.60;97.40;;;;;;5094004;28;20456;-81
2023/03/23 05:05:14;;;;;;;1.98;0.90;;;15.50;97.50;;;;;;5083445;28;20024;-84
2023/03/23 05:07:41;;;;;;;2.45;1.05;;;15.50;97.70;;;;;;5087179;28;20024;-81
2023/03/23 05:10:08;;;;;;;2.83;0.80;;;15.50;97.80;;;;;;5077644;28;20024;-81
2023/03/23 05:12:34;;;;;;;2.05;0.80;;;15.40;98.10;;;;;;5074096;28;20020;-81
2023/03/23 05:15:00;;;;;;;1.67;0.90;;;15.50;98.60;;;;;;5081031;28;20039;-82
2023/03/23 05:17:26;;;;;;;1.05;0.88;;;15.40;98.60;;;;;;5094006;28;20024;-80
2023/03/23 05:19:52;;;;;;;1.48;0.70;;;15.30;99.40;;;;;;5079074;28;20078;-81
2023/03/23 05:22:20;;;;;;;1.05;0.60;;;15.30;99.90;;;;;;5073505;28;20454;-82
2023/03/23 05:24:46;;;;;;;1.67;1.00;;;15.20;99.90;;;;;;5073285;28;20024;-81
2023/03/23 05:27:12;;;;;;;2.75;0.77;;;15.20;99.90;;;;;;5094239;28;20054;-83
2023/03/23 05:29:40;;;;;;;1.30;0.70;;;15.20;99.90;;;;;;5094742;28;20078;-82
2023/03/23 05:32:07;;;;;;;2.25;1.20;;;15.20;99.90;;;;;;5094521;28;20024;-82
2023/03/23 05:34:34;;;;;;;2.05;1.00;;;15.10;99.90;;;;;;5094182;28;20039;-81
2023/03/23 05:37:01;;;;;;;3.50;0.90;;;15.10;99.90;;;;;;5080669;28;20039;-81
2023/03/23 05:39:28;;;;;;;1.67;0.70;;;15.10;99.90;;;;;;5072959;28;20040;-81
2023/03/23 05:41:54;;;;;;;0.70;0.65;;;15.10;99.90;;;;;;5074535;28;20020;-80
2023/03/23 05:44:20;;;;;;;3.28;0.85;;;15.10;99.90;;;;;;5083968;28;20108;-80
2023/03/23 05:46:46;;;;;;;1.65;1.10;;;15.10;99.90;;;;;;5086556;28;20496;-82
2023/03/23 05:49:13;;;;;;;2.55;0.85;;;15.10;99.90;;;;;;5072170;28;20466;-82
2023/03/23 05:51:39;;;;;;;1.75;0.90;;;15.00;99.90;;;;;;5086223;28;20130;-79
2023/03/23 05:54:05;;;;;;;1.52;0.90;;;15.00;99.90;;;;;;5092548;28;20111;-80
2023/03/23 05:56:31;;;;;;;2.35;1.00;;;15.10;99.90;;;;;;5087578;28;20032;-80
2023/03/23 05:58:58;;;;;;;4.03;0.90;;;15.00;99.90;;;;;;5073488;28;20029;-80
2023/03/23 06:01:24;;;;;;;2.47;1.00;;;15.00;99.90;;;;;;5072012;28;20032;-80
2023/03/23 06:03:53;;;;;;;1.75;0.90;;;15.10;99.90;;;;;;5088668;28;20338;-80
2023/03/23 06:06:20;;;;;;;1.35;0.80;;;15.00;99.90;;;;;;5080584;28;20457;-80
2023/03/23 06:08:45;;;;;;;1.73;0.90;;;15.00;99.90;;;;;;5092848;28;20015;-80
2023/03/23 06:11:11;;;;;;;3.85;1.63;;;15.00;99.90;;;;;;5087319;28;20410;-82
2023/03/23 06:13:37;;;;;;;1.30;0.75;;;15.00;99.90;;;;;;5073469;28;20021;-79
2023/03/23 06:16:03;;;;;;;1.63;0.93;;;15.00;99.90;;;;;;5077131;28;20439;-81
2023/03/23 06:18:33;;;;;;;1.35;0.85;;;15.10;99.90;;;;;;5089360;28;20480;-82
2023/03/23 06:20:59;;;;;;;3.45;1.00;;;15.20;99.90;;;;;;5072358;28;20059;-80
2023/03/23 06:23:26;;;;;;;1.77;0.70;;;15.20;99.90;;;;;;5073013;28;20035;-81
2023/03/23 06:25:54;;;;;;;1.90;1.00;;;15.10;99.90;;;;;;5088529;28;20024;-81
2023/03/23 06:28:20;;;;;;;2.25;0.90;;;15.20;99.90;;;;;;5094184;28;20032;-81
2023/03/23 06:30:45;;;;;;;2.28;0.80;;;15.10;99.90;;;;;;5090114;28;20026;-81
2023/03/23 06:33:12;;;;;;;1.15;0.80;;;15.10;99.90;;;;;;5086671;28;20027;-85
2023/03/23 06:35:37;;;;;;;3.75;0.90;;;15.10;99.90;;;;;;5082797;28;20035;-81
2023/03/23 06:38:04;;;;;;;2.85;0.90;;;15.10;99.90;;;;;;5093987;28;20044;-81
2023/03/23 06:40:29;;;;;;;3.80;1.70;;;15.20;99.90;;;;;;5075658;28;20024;-80
2023/03/23 06:42:58;;;;;;;2.47;1.00;;;15.10;99.90;;;;;;5076207;28;20452;-81
2023/03/23 06:45:24;;;;;;;1.50;0.85;;;15.10;99.90;;;;;;5086784;28;20183;-80
2023/03/23 06:47:50;;;;;;;2.20;1.00;;;15.20;99.90;;;;;;5094591;28;20021;-80
2023/03/23 06:50:16;;;;;;;2.22;1.08;;;15.10;99.90;;;;;;5094023;28;20069;-82
2023/03/23 06:52:46;;;;;;;2.42;1.10;;;15.10;99.90;;;;;;5092055;28;20024;-81
2023/03/23 06:55:13;;;;;;;2.15;1.27;;;15.00;99.90;;;;;;5086374;28;20052;-83
2023/03/23 06:57:39;;;;;;;2.72;1.15;;;15.00;99.90;;;;;;5090560;28;20016;-81
2023/03/23 07:00:09;;;;;;;2.60;1.42;;;15.00;99.90;;;;;;5097547;28;20353;-79
2023/03/23 07:02:35;;;;;;;3.97;0.85;;;14.90;99.90;;;;;;5095637;28;20128;-80
2023/03/23 07:05:03;;;;;;;3.45;1.40;;;14.90;99.90;;;;;;5096497;28;20077;-81
2023/03/23 07:07:29;;;;;;;1.95;0.88;;;14.90;99.90;;;;;;5092463;28;20098;-80
2023/03/23 07:09:55;;;;;;;2.05;0.90;;;14.90;99.90;;;;;;5096651;28;20070;-80
2023/03/23 07:12:21;;;;;;;1.20;0.70;;;14.90;99.90;;;;;;5084870;28;20013;-81
2023/03/23 07:14:47;;;;;;;1.88;0.80;;;14.90;99.90;;;;;;5075553;28;20377;-80
2023/03/23 07:17:12;;;;;;;1.90;0.77;;;14.90;99.90;;;;;;5075867;28;20037;-82
2023/03/23 07:19:38;;;;;;;3.22;0.80;;;14.90;99.90;;;;;;5076785;28;20021;-81
2023/03/23 07:22:05;;;;;;;2.72;1.20;;;14.90;99.90;;;;;;5076871;28;20027;-81
2023/03/23 07:24:31;;;;;;;1.67;1.00;;;14.90;99.90;;;;;;5079316;28;20020;-81
2023/03/23 07:26:57;;;;;;;2.03;0.90;;;14.90;99.90;;;;;;5077783;28;20103;-81
2023/03/23 07:29:23;;;;;;;3.55;1.27;;;14.90;99.90;;;;;;5074938;28;20536;-82
2023/03/23 07:31:48;;;;;;;4.80;0.85;;;15.00;99.90;;;;;;5081084;28;20032;-80
2023/03/23 07:34:14;;;;;;;1.70;1.00;;;14.90;99.90;;;;;;5087811;28;20148;-84
2023/03/23 07:36:40;;;;;;;2.35;0.80;;;15.00;99.90;;;;;;5087667;28;20091;-79
2023/03/23 07:39:06;;;;;;;2.47;1.00;;;15.00;99.90;;;;;;5079976;28;20071;-79
2023/03/23 07:41:33;;;;;;;1.80;0.88;;;15.00;99.90;;;;;;5086232;28;20256;-84
2023/03/23 07:43:58;;;;;;;1.63;1.00;;;15.00;99.90;;;;;;5079192;28;20036;-80
2023/03/23 07:46:24;;;;;;;3.20;1.20;;;15.00;99.90;;;;;;5085507;28;20027;-81
2023/03/23 07:48:50;;;;;;;2.15;1.05;;;15.00;99.90;;;;;;5095575;28;20368;-81
2023/03/23 07:51:16;;;;;;;1.83;0.90;;;15.20;99.90;;;;;;5084598;28;20475;-83
2023/03/23 07:53:44;;;;;;;2.60;1.50;;;15.20;99.90;;;;;;5088910;28;20107;-82
2023/03/23 07:56:11;;;;;;;1.35;1.00;;;15.20;99.90;;;;;;5078137;28;20169;-80
2023/03/23 07:58:37;;;;;;;2.92;1.00;;;15.20;99.90;;;;;;5094125;28;20024;-80
2023/03/23 08:01:02;;;;;;;1.25;0.68;;;15.20;99.90;;;;;;5083613;28;20040;-80
2023/03/23 08:03:28;;;;;;;1.95;1.10;;;15.20;99.90;;;;;;5092676;28;20020;-80
2023/03/23 08:05:58;;;;;;;2.50;1.13;;;15.20;99.90;;;;;;5094655;28;20024;-80
2023/03/23 08:08:24;;;;;;;1.83;0.77;;;15.20;99.90;;;;;;5095065;28;20020;-82
2023/03/23 08:10:50;;;;;;;2.55;0.98;;;15.30;99.90;;;;;;5094916;28;20161;-79
2023/03/23 08:13:16;;;;;;;2.58;0.88;;;15.20;99.90;;;;;;5078400;28;20035;-80
2023/03/23 08:15:43;;;;;;;1.77;0.80;;;15.30;99.90;;;;;;5074326;28;20025;-79
2023/03/23 08:18:09;;;;;;;2.25;1.05;;;15.30;99.90;;;;;;5077884;28;20025;-80
2023/03/23 08:20:35;;;;;;;3.22;0.75;;;15.40;99.90;;;;;;5074388;28;20021;-79
2023/03/23 08:23:02;;;;;;;2.97;0.90;;;15.40;99.90;;;;;;5079074;28;20081;-78
2023/03/23 08:25:31;;;;;;;3.30;0.85;;;15.50;99.90;;;;;;5079267;28;20110;-79
2023/03/23 08:27:57;;;;;;;3.03;0.90;;;15.60;99.90;;;;;;5094106;28;20407;-78
2023/03/23 08:30:24;;;;;;;2.10;0.75;;;15.50;99.90;;;;;;5094520;28;20040;-77
2023/03/23 08:32:50;;;;;;;2.40;0.75;;;15.60;99.90;;;;;;5095161;28;20636;-79
2023/03/23 08:35:17;;;;;;;1.33;0.82;;;15.60;99.90;;;;;;5084781;28;20115;-79
2023/03/23 08:37:43;;;;;;;1.75;0.90;;;15.60;99.90;;;;;;5083943;28;20185;-78
2023/03/23 08:40:11;;;;;;;1.92;0.70;;;15.60;99.90;;;;;;5092376;28;20107;-79
2023/03/23 08:42:38;;;;;;;3.92;1.00;;;15.70;99.90;;;;;;5089447;28;20036;-83
2023/03/23 08:45:09;;;;;;;1.75;0.80;;;15.80;99.90;;;;;;5082379;28;20027;-82
2023/03/23 08:47:36;;;;;;;2.92;0.70;;;16.00;99.90;;;;;;5093036;28;20028;-82
2023/03/23 08:50:04;;;;;;;1.00;0.80;;;16.10;99.90;;;;;;5076609;28;20036;-82
2023/03/23 08:52:30;;;;;;;2.45;1.45;;;16.10;99.90;;;;;;5091124;28;20024;-81
2023/03/23 08:54:56;;;;;;;2.20;0.93;;;16.10;99.90;;;;;;5093937;28;20016;-82
2023/03/23 08:57:24;;;;;;;0.75;0.73;;;16.10;99.90;;;;;;5079141;28;20067;-81
2023/03/23 08:59:49;;;;;;;1.17;0.60;;;16.00;99.90;;;;;;5079025;28;20020;-81
2023/03/23 09:02:16;;;;;;;1.25;0.75;;;15.90;99.90;;;;;;5091122;28;20035;-83
2023/03/23 09:04:45;;;;;;;1.98;0.80;;;15.80;99.90;;;;;;5079539;28;20023;-80
2023/03/23 09:07:12;;;;;;;2.20;0.73;;;15.80;99.90;;;;;;5084893;28;20446;-81
2023/03/23 09:09:39;;;;;;;3.22;0.60;;;15.70;99.90;;;;;;5087339;28;20016;-83
2023/03/23 09:12:06;;;;;;;2.13;0.80;;;15.70;99.90;;;;;;5077223;28;20026;-83
2023/03/23 09:14:32;;;;;;;1.15;0.60;;;15.70;99.90;;;;;;5082635;28;20253;-84
2023/03/23 09:16:57;;;;;;;1.80;0.70;;;15.80;99.90;;;;;;5065670;28;20029;-81
2023/03/23 09:19:23;;;;;;;2.95;0.82;;;15.80;99.90;;;;;;5076962;28;20017;-81
2023/03/23 09:21:49;;;;;;;2.72;1.23;;;15.80;99.90;;;;;;5081414;28;20150;-82
2023/03/23 09:24:15;;;;;;;1.17;0.63;;;15.70;99.90;;;;;;5085911;28;20020;-82
2023/03/23 09:26:41;;;;;;;2.70;0.80;;;15.70;99.90;;;;;;5084033;28;20024;-81
2023/03/23 09:29:07;;;;;;;1.95;0.73;;;15.70;99.90;;;;;;5078600;28;20028;-81
2023/03/23 09:31:33;;;;;;;1.77;0.75;;;15.70;99.90;;;;;;5084329;28;20039;-81
2023/03/23 09:34:00;;;;;;;2.75;0.90;;;15.70;99.90;;;;;;5082359;28;20107;-81
2023/03/23 09:36:29;;;;;;;1.38;0.93;;;15.50;99.90;;;;;;5087468;28;20035;-81
2023/03/23 09:38:55;;;;;;;1.35;0.80;;;15.50;99.90;;;;;;5080076;28;20036;-80
2023/03/23 09:41:39;;;;;;;1.95;0.60;;;15.50;99.90;;;;;;5079917;28;20028;-83
2023/03/23 09:44:43;;;;;;;1.10;0.80;;;15.50;99.90;;;;;;5084735;28;20046;-82
2023/03/23 09:47:18;;;;;;;1.88;0.80;;;15.40;99.90;;;;;;5080387;28;20033;-84
2023/03/23 09:49:53;;;;;;;0.73;0.50;;;15.30;99.90;;;;;;5090554;28;20020;-83
2023/03/23 09:52:19;;;;;;;1.73;0.80;;;15.20;99.90;;;;;;5085833;28;20062;-80
2023/03/23 09:54:51;;;;;;;1.55;0.88;;;15.10;99.90;;;;;;5077194;28;20484;-79
2023/03/23 09:57:40;;;;;;;2.55;0.60;;;15.00;99.90;;;;;;5084411;28;20028;-81
2023/03/23 10:00:21;;;;;;;1.08;0.70;;;15.00;99.90;;;;;;5087349;28;20519;-79
2023/03/23 10:03:15;;;;;;;3.40;1.07;;;14.90;99.90;;;;;;5081144;28;20111;-79
2023/03/23 10:05:45;;;;;;;1.23;0.80;;;14.90;99.90;;;;;;5076387;28;20028;-79
2023/03/23 10:08:15;;;;;;;1.00;0.52;;;14.90;99.90;;;;;;5082140;28;20016;-77
2023/03/23 10:10:59;;;;;;;1.27;0.70;;;14.90;99.90;;;;;;5080730;28;20028;-79
2023/03/23 10:13:28;;;;;;;1.55;0.75;;;14.90;99.90;;;;;;5083957;28;20073;-81
2023/03/23 10:15:55;;;;;;;1.35;0.70;;;14.80;99.90;;;;;;5080593;28;20073;-79
2023/03/23 10:18:53;;;;;;;1.23;0.50;;;14.90;99.90;;;;;;5083310;28;20027;-79
2023/03/23 10:21:22;;;;;;;1.33;0.63;;;14.90;99.90;;;;;;5081560;28;20028;-80
2023/03/23 10:23:55;;;;;;;0.98;0.60;;;14.90;99.90;;;;;;5084449;28;20020;-79
2023/03/23 10:26:20;;;;;;;1.00;0.70;;;14.90;99.90;;;;;;5089238;28;20080;-78
2023/03/23 10:28:52;;;;;;;0.98;0.52;;;14.80;99.90;;;;;;5087547;28;20107;-81
2023/03/23 10:31:32;;;;;;;0.95;0.50;;;14.90;99.90;;;;;;5087684;28;20028;-81
2023/03/23 10:34:03;;;;;;;0.80;0.50;;;15.00;99.90;;;;;;5079127;28;20024;-80
2023/03/23 10:36:35;;;;;;;1.50;1.40;;;14.90;99.90;;;;;;5075851;28;20024;-82
2023/03/23 10:39:11;;;;;;;1.90;0.73;;;15.00;99.90;;;;;;5075065;28;20307;-82
2023/03/23 10:41:37;;;;;;;1.30;0.90;;;15.00;99.90;;;;;;5078699;28;20227;-88
2023/03/23 10:44:19;;;;;;;1.10;0.88;;;15.10;99.90;;;;;;5079659;28;20074;-83
2023/03/23 10:46:53;;;;;;;1.10;0.70;;;15.10;99.90;;;;;;5076363;28;20078;-86
2023/03/23 10:49:24;;;;;;;1.13;0.63;;;15.00;99.90;;;;;;5084756;28;20026;-85
2023/03/23 10:52:24;;;;;;;0.98;0.65;;;15.00;99.90;;;;;;5059760;28;20019;-84
2023/03/23 10:55:03;;;;;;;1.50;0.80;;;15.00;99.90;;;;;;5082792;28;20020;-85
2023/03/23 10:57:33;;;;;;;2.80;0.77;;;15.00;99.90;;;;;;5075757;28;20043;-84
2023/03/23 11:00:08;;;;;;;1.17;0.70;;;15.10;99.90;;;;;;5078944;28;20070;-80
2023/03/23 11:02:57;;;;;;;1.17;0.68;;;15.30;99.90;;;;;;5075601;28;20047;-85
2023/03/23 11:05:26;;;;;;;1.42;0.55;;;15.40;99.90;;;;;;5085447;28;20393;-86
2023/03/23 11:07:57;;;;;;;1.00;0.63;;;15.30;99.90;;;;;;5080525;28;20047;-84
2023/03/23 11:10:23;;;;;;;2.53;0.70;;;15.30;99.90;;;;;;5064658;28;20020;-85
2023/03/23 11:12:49;;;;;;;1.60;0.85;;;15.20;99.90;;;;;;5079408;28;20768;-83
2023/03/23 11:15:28;;;;;;;2.40;1.00;;;15.00;99.90;;;;;;5082735;28;20017;-85
2023/03/23 11:18:00;;;;;;;1.05;0.80;;;15.00;99.90;;;;;;5085887;28;20096;-84
2023/03/23 11:20:28;;;;;;;1.15;0.75;;;15.00;99.90;;;;;;5091473;28;20365;-85
2023/03/23 11:22:54;;;;;;;2.38;1.55;;;15.00;99.90;;;;;;5087193;28;20059;-84
2023/03/23 11:25:20;;;;;;;1.10;0.90;;;15.10;99.90;;;;;;5078827;28;20048;-83
2023/03/23 11:27:47;;;;;;;1.95;0.90;;;15.20;99.90;;;;;;5083099;28;20016;-83
2023/03/23 11:30:31;;;;;;;3.35;1.05;;;15.20;99.90;;;;;;5081012;28;20077;-84
2023/03/23 11:33:01;;;;;;;1.35;0.85;;;15.30;99.90;;;;;;5081369;28;20055;-83
2023/03/23 11:35:28;;;;;;;3.28;1.05;;;15.30;99.90;;;;;;5090416;28;20071;-85
2023/03/23 11:37:57;;;;;;;1.60;0.93;;;15.20;99.90;;;;;;5088584;28;20041;-84
2023/03/23 11:40:27;;;;;;;1.60;0.82;;;15.20;99.90;;;;;;5090920;28;20031;-84
2023/03/23 11:42:52;;;;;;;1.15;0.60;;;15.10;99.90;;;;;;5089604;28;20020;-83
2023/03/23 11:45:58;;;;;;;1.20;0.82;;;15.10;99.90;;;;;;5078356;28;20025;-81
2023/03/23 11:48:31;;;;;;;1.63;1.00;;;15.10;99.90;;;;;;5013778;28;20033;-84
2023/03/23 11:51:09;;;;;;;1.35;0.98;;;15.10;99.90;;;;;;5014226;28;20053;-83
2023/03/23 11:53:37;;;;;;;1.42;0.82;;;15.20;99.90;;;;;;5013347;28;20025;-84
2023/03/23 11:56:24;;;;;;;1.98;0.80;;;15.10;99.90;;;;;;5013724;28;20066;-84
2023/03/23 11:58:50;;;;;;;1.63;0.93;;;15.20;99.90;;;;;;5001044;28;20100;-84
2023/03/23 12:01:32;;;;;;;0.80;0.55;;;15.20;99.90;;;;;;4997198;28;20045;-86
2023/03/23 12:04:13;;;;;;;1.02;0.50;;;15.20;99.90;;;;;;5013947;28;20038;-84
2023/03/23 12:06:53;;;;;;;1.00;0.60;;;15.20;99.90;;;;;;5013292;28;20029;-84
2023/03/23 12:09:21;;;;;;;0.70;0.60;;;15.30;99.90;;;;;;5013253;28;20080;-84
2023/03/23 12:12:40;;;;;;;0.95;0.65;;;15.30;99.90;;;;;;5013669;28;20034;-84
2023/03/23 12:15:30;;;;;;;1.17;0.65;;;15.30;99.90;;;;;;4965735;28;20029;-84
2023/03/23 12:18:38;;;;;;;1.02;0.50;;;15.40;99.90;;;;;;5001232;28;20040;-83
2023/03/23 12:21:15;;;;;;;1.52;0.65;;;15.50;99.90;;;;;;5078630;28;20111;-84
2023/03/23 12:23:58;;;;;;;2.10;0.63;;;15.50;99.90;;;;;;5085128;28;20028;-82
2023/03/23 12:26:47;;;;;;;0.85;0.65;;;15.50;99.90;;;;;;5076219;28;20025;-83
2023/03/23 12:29:46;;;;;;;1.55;0.60;;;15.50;99.90;;;;;;5088530;28;20487;-83
2023/03/23 12:32:37;;;;;;;2.38;0.60;;;15.40;99.90;;;;;;5088704;28;20107;-86
2023/03/23 12:35:56;;;;;;;0.68;0.40;;;15.40;99.90;;;;;;5090168;28;20408;-82
2023/03/23 12:38:30;;;;;;;1.52;0.63;;;15.40;99.90;;;;;;5015689;28;20045;-82
2023/03/23 12:41:07;;;;;;;0.90;0.70;;;15.40;99.90;;;;;;5078084;28;20040;-81
2023/03/23 12:43:44;;;;;;;1.55;0.63;;;15.40;99.90;;;;;;5080243;28;20017;-82
2023/03/23 12:46:36;;;;;;;1.10;0.90;;;15.30;99.90;;;;;;5079200;28;20043;-83
2023/03/23 12:49:07;;;;;;;1.37;0.50;;;15.30;99.90;;;;;;5078225;28;20024;-83
2023/03/23 12:51:57;;;;;;;1.73;0.82;;;15.40;99.90;;;;;;5078977;28;20303;-82
2023/03/23 12:54:37;;;;;;;1.63;0.70;;;15.50;99.90;;;;;;5077110;28;20055;-81
2023/03/23 12:57:09;;;;;;;0.50;0.40;;;15.50;99.90;;;;;;5092345;28;20081;-82
2023/03/23 12:59:44;;;;;;;2.13;0.80;;;15.50;99.90;;;;;;5075846;28;20047;-82
2023/03/23 13:02:20;;;;;;;2.55;1.08;;;15.50;99.90;;;;;;5084209;28;20043;-81
2023/03/23 13:05:00;;;;;;;1.75;0.75;;;15.50;99.90;;;;;;5077671;28;20020;-83